sensor_id;sensor_type;location;lat;lon;timestamp;pressure;altitude;pressure_sealevel;temperature;humidity
75692;BME280;64307;52.508;6.090;2023-04-08T00:00:55;102346.16;;;5.70;83.62
75692;BME280;64307;52.508;6.090;2023-04-08T00:03:22;102344.03;;;5.75;82.35
75692;BME280;64307;52.508;6.090;2023-04-08T00:05:47;102354.13;;;5.71;83.47
75692;BME280;64307;52.508;6.090;2023-04-08T00:08:12;102358.69;;;5.67;84.39
75692;BME280;64307;52.508;6.090;2023-04-08T00:10:38;102333.50;;;5.52;83.26
75692;BME280;64307;52.508;6.090;2023-04-08T00:13:03;102356.06;;;5.62;84.24
75692;BME280;64307;52.508;6.090;2023-04-08T00:15:28;102360.63;;;5.58;83.85
75692;BME280;64307;52.508;6.090;2023-04-08T00:17:54;102356.41;;;5.52;83.77
75692;BME280;64307;52.508;6.090;2023-04-08T00:20:21;102365.53;;;5.53;84.40
75692;BME280;64307;52.508;6.090;2023-04-08T00:22:47;102357.06;;;5.49;84.21
75692;BME280;64307;52.508;6.090;2023-04-08T00:25:13;102361.78;;;5.40;84.51
75692;BME280;64307;52.508;6.090;2023-04-08T00:27:40;102377.22;;;5.41;85.36
75692;BME280;64307;52.508;6.090;2023-04-08T00:30:05;102370.06;;;5.40;83.78
75692;BME280;64307;52.508;6.090;2023-04-08T00:32:31;102372.19;;;5.35;84.38
75692;BME280;64307;52.508;6.090;2023-04-08T00:34:57;102361.78;;;5.32;83.53
75692;BME280;64307;52.508;6.090;2023-04-08T00:37:23;102349.94;;;5.23;83.79
75692;BME280;64307;52.508;6.090;2023-04-08T00:39:49;102375.09;;;5.30;85.20
75692;BME280;64307;52.508;6.090;2023-04-08T00:42:15;102379.47;;;5.22;84.76
75692;BME280;64307;52.508;6.090;2023-04-08T00:44:41;102372.19;;;5.26;83.99
75692;BME280;64307;52.508;6.090;2023-04-08T00:47:06;102366.34;;;5.19;83.61
75692;BME280;64307;52.508;6.090;2023-04-08T00:49:31;102374.94;;;5.18;83.90
75692;BME280;64307;52.508;6.090;2023-04-08T00:51:58;102370.69;;;5.03;86.22
75692;BME280;64307;52.508;6.090;2023-04-08T00:54:23;102377.53;;;5.14;84.59
75692;BME280;64307;52.508;6.090;2023-04-08T00:56:49;102375.56;;;5.06;84.11
75692;BME280;64307;52.508;6.090;2023-04-08T00:59:16;102378.47;;;5.01;85.74
75692;BME280;64307;52.508;6.090;2023-04-08T01:07:02;102386.75;;;5.01;84.31
75692;BME280;64307;52.508;6.090;2023-04-08T01:09:34;102391.16;;;5.02;84.65
75692;BME280;64307;52.508;6.090;2023-04-08T01:12:05;102381.41;;;4.96;84.06
75692;BME280;64307;52.508;6.090;2023-04-08T01:14:34;102386.91;;;4.96;84.11
75692;BME280;64307;52.508;6.090;2023-04-08T01:17:03;102390.31;;;4.93;84.18
75692;BME280;64307;52.508;6.090;2023-04-08T01:19:31;102378.09;;;4.77;84.89
75692;BME280;64307;52.508;6.090;2023-04-08T01:22:04;102384.75;;;4.84;83.98
75692;BME280;64307;52.508;6.090;2023-04-08T01:24:35;102385.13;;;4.91;83.58
75692;BME280;64307;52.508;6.090;2023-04-08T01:27:04;102390.47;;;4.88;83.56
75692;BME280;64307;52.508;6.090;2023-04-08T01:29:33;102396.91;;;4.75;85.11
75692;BME280;64307;52.508;6.090;2023-04-08T01:31:59;102398.56;;;4.76;84.28
75692;BME280;64307;52.508;6.090;2023-04-08T01:34:26;102399.53;;;4.80;84.44
75692;BME280;64307;52.508;6.090;2023-04-08T01:36:54;102397.41;;;4.77;84.67
75692;BME280;64307;52.508;6.090;2023-04-08T01:39:20;102397.06;;;4.70;85.06
75692;BME280;64307;52.508;6.090;2023-04-08T01:41:47;102396.09;;;4.66;84.35
75692;BME280;64307;52.508;6.090;2023-04-08T01:44:14;102410.50;;;4.63;85.48
75692;BME280;64307;52.508;6.090;2023-04-08T01:46:41;102405.78;;;4.55;85.88
75692;BME280;64307;52.508;6.090;2023-04-08T01:49:07;102411.91;;;4.52;86.53
75692;BME280;64307;52.508;6.090;2023-04-08T01:51:33;102407.16;;;4.44;87.63
75692;BME280;64307;52.508;6.090;2023-04-08T01:53:59;102402.09;;;4.37;87.81
75692;BME280;64307;52.508;6.090;2023-04-08T01:56:27;102410.84;;;4.31;86.99
75692;BME280;64307;52.508;6.090;2023-04-08T01:58:53;102418.47;;;4.34;88.67
75692;BME280;64307;52.508;6.090;2023-04-08T02:01:25;102407.00;;;4.40;87.27
75692;BME280;64307;52.508;6.090;2023-04-08T02:03:52;102399.94;;;4.26;87.37
75692;BME280;64307;52.508;6.090;2023-04-08T02:06:21;102399.78;;;4.22;88.06
75692;BME280;64307;52.508;6.090;2023-04-08T02:08:46;102398.78;;;4.18;88.22
75692;BME280;64307;52.508;6.090;2023-04-08T02:11:12;102411.75;;;4.18;91.47
75692;BME280;64307;52.508;6.090;2023-04-08T02:13:37;102412.19;;;4.11;90.68
75692;BME280;64307;52.508;6.090;2023-04-08T02:16:09;102407.44;;;4.03;90.68
75692;BME280;64307;52.508;6.090;2023-04-08T02:18:44;102422.16;;;4.21;89.21
75692;BME280;64307;52.508;6.090;2023-04-08T02:21:15;102426.34;;;4.18;89.21
75692;BME280;64307;52.508;6.090;2023-04-08T02:23:45;102422.91;;;4.12;89.44
75692;BME280;64307;52.508;6.090;2023-04-08T02:26:14;102420.84;;;4.18;88.72
75692;BME280;64307;52.508;6.090;2023-04-08T02:28:41;102433.56;;;4.05;89.82
75692;BME280;64307;52.508;6.090;2023-04-08T02:31:11;102429.88;;;4.10;89.54
75692;BME280;64307;52.508;6.090;2023-04-08T02:33:40;102414.38;;;4.00;89.25
75692;BME280;64307;52.508;6.090;2023-04-08T02:36:07;102431.91;;;4.04;89.94
75692;BME280;64307;52.508;6.090;2023-04-08T02:38:33;102432.56;;;4.01;89.96
75692;BME280;64307;52.508;6.090;2023-04-08T02:40:59;102431.25;;;3.99;89.85
75692;BME280;64307;52.508;6.090;2023-04-08T02:43:26;102439.19;;;4.00;90.26
75692;BME280;64307;52.508;6.090;2023-04-08T02:45:57;102426.31;;;3.87;90.81
75692;BME280;64307;52.508;6.090;2023-04-08T02:48:23;102442.41;;;3.94;91.11
75692;BME280;64307;52.508;6.090;2023-04-08T02:50:48;102445.09;;;3.85;91.20
75692;BME280;64307;52.508;6.090;2023-04-08T02:53:14;102438.44;;;3.86;91.01
75692;BME280;64307;52.508;6.090;2023-04-08T02:55:40;102446.84;;;3.81;92.30
75692;BME280;64307;52.508;6.090;2023-04-08T02:58:05;102434.44;;;3.70;92.94
75692;BME280;64307;52.508;6.090;2023-04-08T03:00:30;102437.31;;;3.65;93.46
75692;BME280;64307;52.508;6.090;2023-04-08T03:02:56;102452.78;;;3.75;93.39
75692;BME280;64307;52.508;6.090;2023-04-08T03:05:21;102455.97;;;3.68;94.12
75692;BME280;64307;52.508;6.090;2023-04-08T03:07:49;102452.19;;;3.64;93.48
75692;BME280;64307;52.508;6.090;2023-04-08T03:10:14;102457.41;;;3.66;93.18
75692;BME280;64307;52.508;6.090;2023-04-08T03:12:40;102452.53;;;3.63;93.86
75692;BME280;64307;52.508;6.090;2023-04-08T03:15:05;102462.22;;;3.60;94.10
75692;BME280;64307;52.508;6.090;2023-04-08T03:17:31;102453.03;;;3.65;93.36
75692;BME280;64307;52.508;6.090;2023-04-08T03:19:58;102460.97;;;3.66;92.81
75692;BME280;64307;52.508;6.090;2023-04-08T03:22:24;102459.13;;;3.62;93.49
75692;BME280;64307;52.508;6.090;2023-04-08T03:24:49;102451.00;;;3.57;93.70
75692;BME280;64307;52.508;6.090;2023-04-08T03:27:15;102462.53;;;3.59;94.17
75692;BME280;64307;52.508;6.090;2023-04-08T03:29:40;102450.28;;;3.51;94.48
75692;BME280;64307;52.508;6.090;2023-04-08T03:32:05;102462.81;;;3.57;93.92
75692;BME280;64307;52.508;6.090;2023-04-08T03:34:33;102462.31;;;3.55;94.78
75692;BME280;64307;52.508;6.090;2023-04-08T03:36:58;102463.28;;;3.51;95.35
75692;BME280;64307;52.508;6.090;2023-04-08T03:39:24;102449.72;;;3.41;96.04
75692;BME280;64307;52.508;6.090;2023-04-08T03:41:49;102466.94;;;3.46;95.40
75692;BME280;64307;52.508;6.090;2023-04-08T03:44:15;102453.00;;;3.43;95.45
75692;BME280;64307;52.508;6.090;2023-04-08T03:46:40;102468.28;;;3.49;94.42
75692;BME280;64307;52.508;6.090;2023-04-08T03:49:05;102456.97;;;3.37;95.17
75692;BME280;64307;52.508;6.090;2023-04-08T03:51:31;102472.88;;;3.40;96.20
75692;BME280;64307;52.508;6.090;2023-04-08T03:53:56;102466.66;;;3.34;96.10
75692;BME280;64307;52.508;6.090;2023-04-08T03:56:22;102471.84;;;3.36;96.46
75692;BME280;64307;52.508;6.090;2023-04-08T03:58:48;102476.84;;;3.33;96.22
75692;BME280;64307;52.508;6.090;2023-04-08T04:01:15;102469.59;;;3.38;95.89
75692;BME280;64307;52.508;6.090;2023-04-08T04:03:41;102481.13;;;3.40;95.51
75692;BME280;64307;52.508;6.090;2023-04-08T04:06:07;102468.91;;;3.32;96.00
75692;BME280;64307;52.508;6.090;2023-04-08T04:08:33;102474.59;;;3.36;95.96
75692;BME280;64307;52.508;6.090;2023-04-08T04:10:58;102477.69;;;3.34;96.05
75692;BME280;64307;52.508;6.090;2023-04-08T04:13:24;102481.53;;;3.33;96.01
75692;BME280;64307;52.508;6.090;2023-04-08T04:15:49;102489.28;;;3.31;96.12
75692;BME280;64307;52.508;6.090;2023-04-08T04:18:14;102488.19;;;3.32;95.83
75692;BME280;64307;52.508;6.090;2023-04-08T04:20:41;102463.53;;;3.13;96.41
75692;BME280;64307;52.508;6.090;2023-04-08T04:23:06;102485.94;;;3.20;96.90
75692;BME280;64307;52.508;6.090;2023-04-08T04:25:32;102487.69;;;3.30;96.81
75692;BME280;64307;52.508;6.090;2023-04-08T04:27:57;102496.72;;;3.30;96.67
75692;BME280;64307;52.508;6.090;2023-04-08T04:30:25;102483.09;;;3.25;96.27
75692;BME280;64307;52.508;6.090;2023-04-08T04:32:51;102493.59;;;3.23;97.78
75692;BME280;64307;52.508;6.090;2023-04-08T04:35:16;102497.44;;;3.22;97.33
75692;BME280;64307;52.508;6.090;2023-04-08T04:37:41;102499.28;;;3.27;96.81
75692;BME280;64307;52.508;6.090;2023-04-08T04:40:07;102506.22;;;3.24;97.79
75692;BME280;64307;52.508;6.090;2023-04-08T04:42:33;102506.53;;;3.23;98.02
75692;BME280;64307;52.508;6.090;2023-04-08T04:44:58;102506.53;;;3.23;97.82
75692;BME280;64307;52.508;6.090;2023-04-08T04:47:24;102507.88;;;3.25;97.43
75692;BME280;64307;52.508;6.090;2023-04-08T04:49:49;102514.78;;;3.23;98.84
75692;BME280;64307;52.508;6.090;2023-04-08T04:52:15;102508.38;;;3.14;97.84
75692;BME280;64307;52.508;6.090;2023-04-08T04:54:40;102524.78;;;3.19;98.65
75692;BME280;64307;52.508;6.090;2023-04-08T04:57:06;102514.50;;;3.11;98.20
75692;BME280;64307;52.508;6.090;2023-04-08T04:59:31;102521.00;;;3.15;98.25
75692;BME280;64307;52.508;6.090;2023-04-08T05:01:56;102533.03;;;3.19;98.49
75692;BME280;64307;52.508;6.090;2023-04-08T05:04:23;102523.47;;;3.16;99.31
75692;BME280;64307;52.508;6.090;2023-04-08T05:06:48;102529.97;;;3.20;98.55
75692;BME280;64307;52.508;6.090;2023-04-08T05:09:14;102536.31;;;3.21;98.31
75692;BME280;64307;52.508;6.090;2023-04-08T05:11:39;102541.63;;;3.17;99.32
75692;BME280;64307;52.508;6.090;2023-04-08T05:14:05;102525.69;;;3.14;99.10
75692;BME280;64307;52.508;6.090;2023-04-08T05:16:31;102533.56;;;3.21;98.83
75692;BME280;64307;52.508;6.090;2023-04-08T05:18:57;102540.28;;;3.15;99.18
75692;BME280;64307;52.508;6.090;2023-04-08T05:21:23;102539.25;;;3.24;98.66
75692;BME280;64307;52.508;6.090;2023-04-08T05:23:49;102540.91;;;3.25;99.30
75692;BME280;64307;52.508;6.090;2023-04-08T05:26:17;102531.94;;;3.20;98.89
75692;BME280;64307;52.508;6.090;2023-04-08T05:28:43;102531.00;;;3.24;99.12
75692;BME280;64307;52.508;6.090;2023-04-08T05:31:09;102543.03;;;3.28;98.80
75692;BME280;64307;52.508;6.090;2023-04-08T05:33:36;102539.47;;;3.28;99.29
75692;BME280;64307;52.508;6.090;2023-04-08T05:36:01;102535.06;;;3.27;98.59
75692;BME280;64307;52.508;6.090;2023-04-08T05:38:27;102547.03;;;3.36;99.01
75692;BME280;64307;52.508;6.090;2023-04-08T05:40:52;102557.81;;;3.46;98.55
75692;BME280;64307;52.508;6.090;2023-04-08T05:43:17;102554.56;;;3.44;98.93
75692;BME280;64307;52.508;6.090;2023-04-08T05:45:43;102544.25;;;3.36;98.03
75692;BME280;64307;52.508;6.090;2023-04-08T05:48:08;102556.19;;;3.45;98.77
75692;BME280;64307;52.508;6.090;2023-04-08T05:50:34;102554.25;;;3.46;98.61
75692;BME280;64307;52.508;6.090;2023-04-08T05:52:59;102544.56;;;3.48;98.15
75692;BME280;64307;52.508;6.090;2023-04-08T05:55:25;102554.38;;;3.41;98.43
75692;BME280;64307;52.508;6.090;2023-04-08T05:57:50;102549.06;;;3.44;98.71
75692;BME280;64307;52.508;6.090;2023-04-08T06:00:15;102554.56;;;3.44;99.12
75692;BME280;64307;52.508;6.090;2023-04-08T06:02:41;102547.03;;;3.36;99.27
75692;BME280;64307;52.508;6.090;2023-04-08T06:05:06;102557.19;;;3.49;98.92
75692;BME280;64307;52.508;6.090;2023-04-08T06:07:32;102556.09;;;3.50;98.65
75692;BME280;64307;52.508;6.090;2023-04-08T06:09:58;102564.34;;;3.50;98.89
75692;BME280;64307;52.508;6.090;2023-04-08T06:12:23;102560.16;;;3.53;98.95
75692;BME280;64307;52.508;6.090;2023-04-08T06:14:53;102566.69;;;3.57;98.70
75692;BME280;64307;52.508;6.090;2023-04-08T06:17:18;102576.97;;;3.65;98.35
75692;BME280;64307;52.508;6.090;2023-04-08T06:19:44;102577.59;;;3.75;98.07
75692;BME280;64307;52.508;6.090;2023-04-08T06:22:09;102572.03;;;3.89;96.86
75692;BME280;64307;52.508;6.090;2023-04-08T06:24:35;102582.91;;;4.07;97.21
75692;BME280;64307;52.508;6.090;2023-04-08T06:27:00;102585.50;;;4.04;95.75
75692;BME280;64307;52.508;6.090;2023-04-08T06:29:25;102588.53;;;4.02;96.18
75692;BME280;64307;52.508;6.090;2023-04-08T06:31:50;102590.72;;;4.28;95.34
75692;BME280;64307;52.508;6.090;2023-04-08T06:34:16;102591.84;;;4.27;95.12
75692;BME280;64307;52.508;6.090;2023-04-08T06:36:42;102612.00;;;4.49;94.92
75692;BME280;64307;52.508;6.090;2023-04-08T06:39:07;102620.34;;;4.22;94.94
75692;BME280;64307;52.508;6.090;2023-04-08T06:41:32;102603.50;;;4.24;95.76
75692;BME280;64307;52.508;6.090;2023-04-08T06:43:57;102595.38;;;4.41;94.38
75692;BME280;64307;52.508;6.090;2023-04-08T06:46:23;102597.88;;;4.73;94.29
75692;BME280;64307;52.508;6.090;2023-04-08T06:48:49;102611.25;;;5.10;92.58
75692;BME280;64307;52.508;6.090;2023-04-08T06:51:14;102613.34;;;5.35;90.56
75692;BME280;64307;52.508;6.090;2023-04-08T06:53:39;102620.59;;;5.62;90.01
75692;BME280;64307;52.508;6.090;2023-04-08T06:56:05;102612.28;;;6.35;86.46
75692;BME280;64307;52.508;6.090;2023-04-08T06:58:30;102607.66;;;7.08;84.14
75692;BME280;64307;52.508;6.090;2023-04-08T07:00:55;102627.75;;;6.62;85.18
75692;BME280;64307;52.508;6.090;2023-04-08T07:03:22;102629.06;;;6.73;85.36
75692;BME280;64307;52.508;6.090;2023-04-08T07:05:47;102621.72;;;6.60;85.79
75692;BME280;64307;52.508;6.090;2023-04-08T07:08:12;102634.56;;;6.05;88.27
75692;BME280;64307;52.508;6.090;2023-04-08T07:10:38;102643.66;;;6.14;88.14
75692;BME280;64307;52.508;6.090;2023-04-08T07:13:04;102634.25;;;6.83;86.45
75692;BME280;64307;52.508;6.090;2023-04-08T07:15:30;102620.63;;;7.91;81.95
75692;BME280;64307;52.508;6.090;2023-04-08T07:17:55;102636.69;;;8.56;79.76
75692;BME280;64307;52.508;6.090;2023-04-08T07:20:21;102636.53;;;8.03;81.43
75692;BME280;64307;52.508;6.090;2023-04-08T07:22:48;102641.97;;;7.99;80.57
75692;BME280;64307;52.508;6.090;2023-04-08T07:25:14;102634.59;;;8.53;79.90
75692;BME280;64307;52.508;6.090;2023-04-08T07:27:41;102641.91;;;8.58;79.85
75692;BME280;64307;52.508;6.090;2023-04-08T07:30:06;102653.06;;;9.35;76.36
75692;BME280;64307;52.508;6.090;2023-04-08T07:32:32;102641.22;;;10.59;72.92
75692;BME280;64307;52.508;6.090;2023-04-08T07:34:58;102643.16;;;13.83;60.14
75692;BME280;64307;52.508;6.090;2023-04-08T07:37:26;102645.69;;;15.07;56.15
75692;BME280;64307;52.508;6.090;2023-04-08T07:39:51;102643.53;;;15.30;53.60
75692;BME280;64307;52.508;6.090;2023-04-08T07:42:17;102648.59;;;15.98;52.38
75692;BME280;64307;52.508;6.090;2023-04-08T07:44:44;102643.66;;;18.30;45.96
75692;BME280;64307;52.508;6.090;2023-04-08T07:47:09;102658.44;;;14.38;54.47
75692;BME280;64307;52.508;6.090;2023-04-08T07:49:36;102650.00;;;15.34;51.60
75692;BME280;64307;52.508;6.090;2023-04-08T07:52:01;102672.16;;;14.46;54.63
75692;BME280;64307;52.508;6.090;2023-04-08T07:54:26;102672.72;;;14.07;56.02
75692;BME280;64307;52.508;6.090;2023-04-08T07:56:52;102662.72;;;19.13;43.65
75692;BME280;64307;52.508;6.090;2023-04-08T07:59:17;102660.06;;;18.70;43.05
75692;BME280;64307;52.508;6.090;2023-04-08T08:01:42;102658.00;;;19.61;41.22
75692;BME280;64307;52.508;6.090;2023-04-08T08:04:08;102657.59;;;18.90;42.29
75692;BME280;64307;52.508;6.090;2023-04-08T08:06:33;102657.31;;;21.06;38.90
75692;BME280;64307;52.508;6.090;2023-04-08T08:08:59;102658.97;;;19.30;42.06
75692;BME280;64307;52.508;6.090;2023-04-08T08:11:25;102672.13;;;18.85;42.57
75692;BME280;64307;52.508;6.090;2023-04-08T08:13:54;102655.84;;;15.18;50.28
75692;BME280;64307;52.508;6.090;2023-04-08T08:16:19;102656.28;;;19.09;41.83
75692;BME280;64307;52.508;6.090;2023-04-08T08:18:45;102666.38;;;16.16;48.67
75692;BME280;64307;52.508;6.090;2023-04-08T08:21:10;102659.72;;;17.31;46.61
75692;BME280;64307;52.508;6.090;2023-04-08T08:23:35;102661.16;;;20.89;39.22
75692;BME280;64307;52.508;6.090;2023-04-08T08:26:03;102661.31;;;24.01;33.52
75692;BME280;64307;52.508;6.090;2023-04-08T08:28:30;102657.94;;;25.46;31.18
75692;BME280;64307;52.508;6.090;2023-04-08T08:30:57;102660.06;;;25.16;30.41
75692;BME280;64307;52.508;6.090;2023-04-08T08:33:23;102668.00;;;25.63;30.20
75692;BME280;64307;52.508;6.090;2023-04-08T08:35:49;102666.88;;;21.46;36.30
75692;BME280;64307;52.508;6.090;2023-04-08T08:38:14;102671.75;;;22.41;35.26
75692;BME280;64307;52.508;6.090;2023-04-08T08:40:42;102655.44;;;20.25;37.38
75692;BME280;64307;52.508;6.090;2023-04-08T08:43:08;102671.47;;;17.68;43.56
75692;BME280;64307;52.508;6.090;2023-04-08T08:45:38;102680.84;;;15.67;48.97
75692;BME280;64307;52.508;6.090;2023-04-08T08:48:04;102674.97;;;13.07;55.65
75692;BME280;64307;52.508;6.090;2023-04-08T08:50:30;102680.19;;;12.20;61.43
75692;BME280;64307;52.508;6.090;2023-04-08T08:52:55;102675.94;;;12.80;60.29
75692;BME280;64307;52.508;6.090;2023-04-08T08:55:21;102683.03;;;13.54;58.79
75692;BME280;64307;52.508;6.090;2023-04-08T08:57:49;102688.59;;;12.04;62.25
75692;BME280;64307;52.508;6.090;2023-04-08T09:00:16;102690.84;;;12.14;63.43
75692;BME280;64307;52.508;6.090;2023-04-08T09:02:42;102673.13;;;11.76;63.84
75692;BME280;64307;52.508;6.090;2023-04-08T09:05:08;102683.81;;;12.05;63.50
75692;BME280;64307;52.508;6.090;2023-04-08T09:07:37;102681.84;;;12.05;64.00
75692;BME280;64307;52.508;6.090;2023-04-08T09:10:06;102702.81;;;11.25;65.31
75692;BME280;64307;52.508;6.090;2023-04-08T09:12:31;102685.47;;;11.90;63.86
75692;BME280;64307;52.508;6.090;2023-04-08T09:15:04;102686.31;;;13.37;61.14
75692;BME280;64307;52.508;6.090;2023-04-08T09:17:31;102683.94;;;14.07;59.07
75692;BME280;64307;52.508;6.090;2023-04-08T09:20:08;102675.88;;;18.26;47.33
75692;BME280;64307;52.508;6.090;2023-04-08T09:22:59;102674.69;;;18.23;44.51
75692;BME280;64307;52.508;6.090;2023-04-08T09:25:28;102668.97;;;15.11;52.04
75692;BME280;64307;52.508;6.090;2023-04-08T09:27:54;102666.19;;;14.22;55.45
75692;BME280;64307;52.508;6.090;2023-04-08T09:30:24;102682.56;;;14.20;55.28
75692;BME280;64307;52.508;6.090;2023-04-08T09:32:54;102669.25;;;14.99;54.73
75692;BME280;64307;52.508;6.090;2023-04-08T09:35:20;102674.09;;;15.38;54.05
75692;BME280;64307;52.508;6.090;2023-04-08T09:37:46;102710.50;;;14.39;55.29
75692;BME280;64307;52.508;6.090;2023-04-08T09:40:16;102713.56;;;14.86;54.03
75692;BME280;64307;52.508;6.090;2023-04-08T09:42:47;102708.75;;;14.31;54.55
75692;BME280;64307;52.508;6.090;2023-04-08T09:45:15;102713.69;;;14.37;55.88
75692;BME280;64307;52.508;6.090;2023-04-08T09:48:17;102729.34;;;13.70;58.91
75692;BME280;64307;52.508;6.090;2023-04-08T09:50:49;102720.69;;;14.80;56.22
75692;BME280;64307;52.508;6.090;2023-04-08T09:53:35;102708.19;;;16.21;54.40
75692;BME280;64307;52.508;6.090;2023-04-08T09:56:09;102707.38;;;16.17;51.54
75692;BME280;64307;52.508;6.090;2023-04-08T09:58:53;102705.50;;;16.35;51.40
75692;BME280;64307;52.508;6.090;2023-04-08T10:01:29;102702.19;;;16.26;52.26
75692;BME280;64307;52.508;6.090;2023-04-08T10:03:57;102696.03;;;14.93;53.29
75692;BME280;64307;52.508;6.090;2023-04-08T10:06:27;102683.06;;;15.47;50.64
75692;BME280;64307;52.508;6.090;2023-04-08T10:08:54;102694.47;;;14.95;51.57
75692;BME280;64307;52.508;6.090;2023-04-08T10:11:20;102690.50;;;13.46;55.88
75692;BME280;64307;52.508;6.090;2023-04-08T10:13:46;102694.66;;;15.46;52.69
75692;BME280;64307;52.508;6.090;2023-04-08T10:18:41;102707.16;;;14.07;54.77
75692;BME280;64307;52.508;6.090;2023-04-08T10:21:35;102710.19;;;13.72;56.77
75692;BME280;64307;52.508;6.090;2023-04-08T10:24:02;102710.06;;;14.93;54.23
75692;BME280;64307;52.508;6.090;2023-04-08T10:26:38;102709.81;;;15.41;54.84
75692;BME280;64307;52.508;6.090;2023-04-08T10:31:45;102689.19;;;17.55;48.92
75692;BME280;64307;52.508;6.090;2023-04-08T10:36:43;102693.94;;;18.77;44.48
75692;BME280;64307;52.508;6.090;2023-04-08T10:39:09;102688.72;;;18.69;46.03
75692;BME280;64307;52.508;6.090;2023-04-08T10:41:34;102678.63;;;18.75;46.11
75692;BME280;64307;52.508;6.090;2023-04-08T10:44:03;102679.88;;;17.47;48.90
75692;BME280;64307;52.508;6.090;2023-04-08T10:46:36;102688.88;;;16.16;52.34
75692;BME280;64307;52.508;6.090;2023-04-08T10:49:02;102689.59;;;15.62;53.36
75692;BME280;64307;52.508;6.090;2023-04-08T10:51:31;102670.97;;;15.84;54.48
75692;BME280;64307;52.508;6.090;2023-04-08T10:54:04;102693.81;;;14.75;55.71
75692;BME280;64307;52.508;6.090;2023-04-08T10:56:31;102687.38;;;13.96;58.96
75692;BME280;64307;52.508;6.090;2023-04-08T10:58:57;102676.41;;;14.63;58.41
75692;BME280;64307;52.508;6.090;2023-04-08T11:01:23;102687.34;;;14.19;59.24
75692;BME280;64307;52.508;6.090;2023-04-08T11:03:48;102681.47;;;14.28;59.54
75692;BME280;64307;52.508;6.090;2023-04-08T11:06:14;102677.34;;;14.74;58.98
75692;BME280;64307;52.508;6.090;2023-04-08T11:08:40;102681.41;;;14.76;57.87
75692;BME280;64307;52.508;6.090;2023-04-08T11:11:06;102673.94;;;15.21;56.41
75692;BME280;64307;52.508;6.090;2023-04-08T11:13:35;102687.09;;;14.28;58.05
75692;BME280;64307;52.508;6.090;2023-04-08T11:16:02;102686.03;;;13.23;61.31
75692;BME280;64307;52.508;6.090;2023-04-08T11:18:30;102665.47;;;13.79;60.91
75692;BME280;64307;52.508;6.090;2023-04-08T11:20:56;102682.13;;;14.18;60.33
75692;BME280;64307;52.508;6.090;2023-04-08T11:23:26;102676.34;;;14.30;60.12
75692;BME280;64307;52.508;6.090;2023-04-08T11:25:52;102693.19;;;14.33;60.00
75692;BME280;64307;52.508;6.090;2023-04-08T11:28:18;102680.66;;;14.80;58.72
75692;BME280;64307;52.508;6.090;2023-04-08T11:30:44;102689.63;;;13.87;60.47
75692;BME280;64307;52.508;6.090;2023-04-08T11:33:12;102692.94;;;13.70;61.10
75692;BME280;64307;52.508;6.090;2023-04-08T11:35:42;102695.16;;;13.39;61.02
75692;BME280;64307;52.508;6.090;2023-04-08T11:38:10;102691.13;;;13.17;62.26
75692;BME280;64307;52.508;6.090;2023-04-08T11:40:36;102694.84;;;14.12;59.50
75692;BME280;64307;52.508;6.090;2023-04-08T11:43:10;102694.50;;;14.17;58.35
75692;BME280;64307;52.508;6.090;2023-04-08T11:45:40;102692.88;;;14.38;58.37
75692;BME280;64307;52.508;6.090;2023-04-08T11:48:13;102684.13;;;14.69;59.43
75692;BME280;64307;52.508;6.090;2023-04-08T11:50:39;102685.47;;;15.45;55.56
75692;BME280;64307;52.508;6.090;2023-04-08T11:53:24;102671.97;;;16.09;54.21
75692;BME280;64307;52.508;6.090;2023-04-08T11:55:50;102668.75;;;16.68;53.85
75692;BME280;64307;52.508;6.090;2023-04-08T11:58:15;102682.44;;;16.73;52.41
75692;BME280;64307;52.508;6.090;2023-04-08T12:00:41;102663.19;;;16.86;51.50
75692;BME280;64307;52.508;6.090;2023-04-08T12:03:08;102676.56;;;17.13;51.72
75692;BME280;64307;52.508;6.090;2023-04-08T12:05:33;102671.81;;;16.46;53.44
75692;BME280;64307;52.508;6.090;2023-04-08T12:07:59;102674.81;;;16.77;52.81
75692;BME280;64307;52.508;6.090;2023-04-08T12:10:24;102680.00;;;14.63;56.61
75692;BME280;64307;52.508;6.090;2023-04-08T12:12:50;102661.72;;;15.06;56.83
75692;BME280;64307;52.508;6.090;2023-04-08T12:15:16;102675.13;;;14.90;58.23
75692;BME280;64307;52.508;6.090;2023-04-08T12:17:42;102678.38;;;14.92;57.41
75692;BME280;64307;52.508;6.090;2023-04-08T12:20:08;102667.44;;;14.50;58.27
75692;BME280;64307;52.508;6.090;2023-04-08T12:22:34;102667.81;;;15.12;57.64
75692;BME280;64307;52.508;6.090;2023-04-08T12:24:59;102665.00;;;15.48;56.68
75692;BME280;64307;52.508;6.090;2023-04-08T12:27:27;102659.31;;;15.85;57.05
75692;BME280;64307;52.508;6.090;2023-04-08T12:29:52;102669.16;;;16.09;54.31
75692;BME280;64307;52.508;6.090;2023-04-08T12:32:18;102671.06;;;15.98;56.92
75692;BME280;64307;52.508;6.090;2023-04-08T12:34:44;102665.44;;;15.50;55.99
75692;BME280;64307;52.508;6.090;2023-04-08T12:37:09;102668.78;;;14.34;58.38
75692;BME280;64307;52.508;6.090;2023-04-08T12:39:35;102670.03;;;15.32;56.95
75692;BME280;64307;52.508;6.090;2023-04-08T12:42:00;102666.63;;;15.97;55.01
75692;BME280;64307;52.508;6.090;2023-04-08T12:44:26;102652.03;;;15.77;55.29
75692;BME280;64307;52.508;6.090;2023-04-08T12:46:51;102656.38;;;16.22;56.23
75692;BME280;64307;52.508;6.090;2023-04-08T12:49:16;102669.75;;;16.35;55.11
75692;BME280;64307;52.508;6.090;2023-04-08T12:51:42;102666.53;;;16.40;55.14
75692;BME280;64307;52.508;6.090;2023-04-08T12:54:07;102663.91;;;15.23;56.54
75692;BME280;64307;52.508;6.090;2023-04-08T12:56:32;102669.28;;;16.30;54.35
75692;BME280;64307;52.508;6.090;2023-04-08T12:58:58;102668.50;;;16.33;54.16
75692;BME280;64307;52.508;6.090;2023-04-08T13:01:26;102664.31;;;16.67;53.47
75692;BME280;64307;52.508;6.090;2023-04-08T13:03:52;102655.16;;;16.19;54.40
75692;BME280;64307;52.508;6.090;2023-04-08T13:06:18;102661.13;;;14.31;59.60